sensor_id;sensor_type;location;lat;lon;timestamp;temperature;humidity
69006;SHT31;56061;51.748;19.620;2024-02-04T00:02:14;7.94;78.87
69006;SHT31;56061;51.748;19.620;2024-02-04T00:04:41;7.93;78.94
69006;SHT31;56061;51.748;19.620;2024-02-04T00:07:08;7.94;79.09
69006;SHT31;56061;51.748;19.620;2024-02-04T00:09:35;7.92;79.25
69006;SHT31;56061;51.748;19.620;2024-02-04T00:12:02;7.90;79.21
69006;SHT31;56061;51.748;19.620;2024-02-04T00:14:30;7.85;78.91
69006;SHT31;56061;51.748;19.620;2024-02-04T00:16:57;7.84;78.64
69006;SHT31;56061;51.748;19.620;2024-02-04T00:19:24;7.82;78.87
69006;SHT31;56061;51.748;19.620;2024-02-04T00:21:51;7.79;78.81
69006;SHT31;56061;51.748;19.620;2024-02-04T00:24:18;7.80;78.93
69006;SHT31;56061;51.748;19.620;2024-02-04T00:26:45;7.77;79.00
69006;SHT31;56061;51.748;19.620;2024-02-04T00:29:12;7.73;79.08
69006;SHT31;56061;51.748;19.620;2024-02-04T00:31:39;7.69;79.24
69006;SHT31;56061;51.748;19.620;2024-02-04T00:34:05;7.67;79.36
69006;SHT31;56061;51.748;19.620;2024-02-04T00:36:32;7.64;79.49
69006;SHT31;56061;51.748;19.620;2024-02-04T00:38:59;7.62;79.51
69006;SHT31;56061;51.748;19.620;2024-02-04T00:41:25;7.59;79.61
69006;SHT31;56061;51.748;19.620;2024-02-04T00:43:52;7.57;79.70
69006;SHT31;56061;51.748;19.620;2024-02-04T00:46:18;7.53;79.84
69006;SHT31;56061;51.748;19.620;2024-02-04T00:48:45;7.47;79.96
69006;SHT31;56061;51.748;19.620;2024-02-04T00:51:12;7.45;80.13
69006;SHT31;56061;51.748;19.620;2024-02-04T00:53:40;7.42;80.24
69006;SHT31;56061;51.748;19.620;2024-02-04T00:56:06;7.41;80.34
69006;SHT31;56061;51.748;19.620;2024-02-04T00:58:33;7.41;80.34
69006;SHT31;56061;51.748;19.620;2024-02-04T01:00:59;7.41;80.39
69006;SHT31;56061;51.748;19.620;2024-02-04T01:03:26;7.42;80.52
69006;SHT31;56061;51.748;19.620;2024-02-04T01:05:53;7.45;80.59
69006;SHT31;56061;51.748;19.620;2024-02-04T01:08:20;7.46;80.52
69006;SHT31;56061;51.748;19.620;2024-02-04T01:10:46;7.45;80.47
69006;SHT31;56061;51.748;19.620;2024-02-04T01:13:13;7.41;80.50
69006;SHT31;56061;51.748;19.620;2024-02-04T01:15:40;7.40;80.49
69006;SHT31;56061;51.748;19.620;2024-02-04T01:18:07;7.39;80.47
69006;SHT31;56061;51.748;19.620;2024-02-04T01:20:34;7.38;80.47
69006;SHT31;56061;51.748;19.620;2024-02-04T01:23:01;7.37;80.23
69006;SHT31;56061;51.748;19.620;2024-02-04T01:25:27;7.36;80.06
69006;SHT31;56061;51.748;19.620;2024-02-04T01:27:54;7.38;79.98
69006;SHT31;56061;51.748;19.620;2024-02-04T01:30:20;7.38;79.42
69006;SHT31;56061;51.748;19.620;2024-02-04T01:32:47;7.36;79.34
69006;SHT31;56061;51.748;19.620;2024-02-04T01:35:14;7.33;79.09
69006;SHT31;56061;51.748;19.620;2024-02-04T01:37:42;7.30;79.00
69006;SHT31;56061;51.748;19.620;2024-02-04T01:40:10;7.29;79.01
69006;SHT31;56061;51.748;19.620;2024-02-04T01:42:37;7.29;78.88
69006;SHT31;56061;51.748;19.620;2024-02-04T01:45:04;7.28;78.70
69006;SHT31;56061;51.748;19.620;2024-02-04T01:47:31;7.26;78.58
69006;SHT31;56061;51.748;19.620;2024-02-04T01:49:57;7.22;78.58
69006;SHT31;56061;51.748;19.620;2024-02-04T01:52:24;7.15;78.31
69006;SHT31;56061;51.748;19.620;2024-02-04T01:54:52;7.10;78.16
69006;SHT31;56061;51.748;19.620;2024-02-04T01:57:19;7.04;78.18
69006;SHT31;56061;51.748;19.620;2024-02-04T01:59:46;6.99;78.27
69006;SHT31;56061;51.748;19.620;2024-02-04T02:02:14;6.96;78.37
69006;SHT31;56061;51.748;19.620;2024-02-04T02:04:41;6.92;78.42
69006;SHT31;56061;51.748;19.620;2024-02-04T02:07:08;6.87;78.32
69006;SHT31;56061;51.748;19.620;2024-02-04T02:09:36;6.81;78.18
69006;SHT31;56061;51.748;19.620;2024-02-04T02:12:04;6.76;78.10
69006;SHT31;56061;51.748;19.620;2024-02-04T02:14:42;6.71;78.00
69006;SHT31;56061;51.748;19.620;2024-02-04T02:17:16;6.68;77.81
69006;SHT31;56061;51.748;19.620;2024-02-04T02:19:54;6.65;77.81
69006;SHT31;56061;51.748;19.620;2024-02-04T02:22:38;6.63;77.78
69006;SHT31;56061;51.748;19.620;2024-02-04T02:25:14;6.60;77.83
69006;SHT31;56061;51.748;19.620;2024-02-04T02:27:49;6.54;77.90
69006;SHT31;56061;51.748;19.620;2024-02-04T02:30:17;6.52;77.88
69006;SHT31;56061;51.748;19.620;2024-02-04T02:32:44;6.49;78.01
69006;SHT31;56061;51.748;19.620;2024-02-04T02:35:14;6.48;77.98
69006;SHT31;56061;51.748;19.620;2024-02-04T02:38:05;6.48;78.07
69006;SHT31;56061;51.748;19.620;2024-02-04T02:40:47;6.46;78.02
69006;SHT31;56061;51.748;19.620;2024-02-04T02:43:24;6.46;77.97
69006;SHT31;56061;51.748;19.620;2024-02-04T02:45:52;6.42;77.95
69006;SHT31;56061;51.748;19.620;2024-02-04T02:48:19;6.41;77.97
69006;SHT31;56061;51.748;19.620;2024-02-04T02:50:47;6.37;77.95
69006;SHT31;56061;51.748;19.620;2024-02-04T02:53:14;6.33;77.97
69006;SHT31;56061;51.748;19.620;2024-02-04T02:55:40;6.30;78.08
69006;SHT31;56061;51.748;19.620;2024-02-04T02:58:07;6.26;78.16
69006;SHT31;56061;51.748;19.620;2024-02-04T03:00:34;6.25;78.23
69006;SHT31;56061;51.748;19.620;2024-02-04T03:03:00;6.24;78.34
69006;SHT31;56061;51.748;19.620;2024-02-04T03:05:27;6.23;78.48
69006;SHT31;56061;51.748;19.620;2024-02-04T03:07:54;6.25;78.58
69006;SHT31;56061;51.748;19.620;2024-02-04T03:10:20;6.25;78.64
69006;SHT31;56061;51.748;19.620;2024-02-04T03:12:47;6.25;78.74
69006;SHT31;56061;51.748;19.620;2024-02-04T03:15:13;6.24;78.80
69006;SHT31;56061;51.748;19.620;2024-02-04T03:17:40;6.23;78.83
69006;SHT31;56061;51.748;19.620;2024-02-04T03:20:06;6.24;78.85
69006;SHT31;56061;51.748;19.620;2024-02-04T03:22:34;6.23;78.91
69006;SHT31;56061;51.748;19.620;2024-02-04T03:25:00;6.22;78.87
69006;SHT31;56061;51.748;19.620;2024-02-04T03:27:27;6.20;78.80
69006;SHT31;56061;51.748;19.620;2024-02-04T03:29:53;6.19;78.74
69006;SHT31;56061;51.748;19.620;2024-02-04T03:32:20;6.15;78.51
69006;SHT31;56061;51.748;19.620;2024-02-04T03:34:46;6.10;78.36
69006;SHT31;56061;51.748;19.620;2024-02-04T03:37:13;6.05;78.27
69006;SHT31;56061;51.748;19.620;2024-02-04T03:39:40;6.00;78.25
69006;SHT31;56061;51.748;19.620;2024-02-04T03:42:06;5.96;78.24
69006;SHT31;56061;51.748;19.620;2024-02-04T03:44:33;5.91;78.18
69006;SHT31;56061;51.748;19.620;2024-02-04T03:46:59;5.84;78.19
69006;SHT31;56061;51.748;19.620;2024-02-04T03:49:26;5.79;78.07
69006;SHT31;56061;51.748;19.620;2024-02-04T03:51:52;5.76;77.98
69006;SHT31;56061;51.748;19.620;2024-02-04T03:54:19;5.72;77.88
69006;SHT31;56061;51.748;19.620;2024-02-04T03:56:46;5.68;77.88
69006;SHT31;56061;51.748;19.620;2024-02-04T03:59:12;5.64;77.92
69006;SHT31;56061;51.748;19.620;2024-02-04T04:01:39;5.61;77.85
69006;SHT31;56061;51.748;19.620;2024-02-04T04:04:06;5.58;77.86
69006;SHT31;56061;51.748;19.620;2024-02-04T04:06:33;5.56;77.83
69006;SHT31;56061;51.748;19.620;2024-02-04T04:09:00;5.54;77.88
69006;SHT31;56061;51.748;19.620;2024-02-04T04:11:26;5.52;77.85
69006;SHT31;56061;51.748;19.620;2024-02-04T04:13:53;5.48;77.87
69006;SHT31;56061;51.748;19.620;2024-02-04T04:16:20;5.45;77.93
69006;SHT31;56061;51.748;19.620;2024-02-04T04:18:48;5.41;77.87
69006;SHT31;56061;51.748;19.620;2024-02-04T04:21:16;5.37;77.96
69006;SHT31;56061;51.748;19.620;2024-02-04T04:23:43;5.34;78.02
69006;SHT31;56061;51.748;19.620;2024-02-04T04:26:10;5.32;78.11
69006;SHT31;56061;51.748;19.620;2024-02-04T04:28:36;5.31;78.12
69006;SHT31;56061;51.748;19.620;2024-02-04T04:31:03;5.31;78.19
69006;SHT31;56061;51.748;19.620;2024-02-04T04:33:30;5.31;78.22
69006;SHT31;56061;51.748;19.620;2024-02-04T04:35:57;5.32;78.28
69006;SHT31;56061;51.748;19.620;2024-02-04T04:38:23;5.30;78.36
69006;SHT31;56061;51.748;19.620;2024-02-04T04:40:50;5.27;78.42
69006;SHT31;56061;51.748;19.620;2024-02-04T04:43:16;5.24;78.51
69006;SHT31;56061;51.748;19.620;2024-02-04T04:45:43;5.25;78.65
69006;SHT31;56061;51.748;19.620;2024-02-04T04:48:10;5.25;78.72
69006;SHT31;56061;51.748;19.620;2024-02-04T04:50:37;5.25;78.78
69006;SHT31;56061;51.748;19.620;2024-02-04T04:53:04;5.24;78.80
69006;SHT31;56061;51.748;19.620;2024-02-04T04:55:30;5.21;78.80
69006;SHT31;56061;51.748;19.620;2024-02-04T04:57:57;5.20;78.87
69006;SHT31;56061;51.748;19.620;2024-02-04T05:00:23;5.17;78.90
69006;SHT31;56061;51.748;19.620;2024-02-04T05:02:50;5.14;78.93
69006;SHT31;56061;51.748;19.620;2024-02-04T05:05:17;5.10;79.00
69006;SHT31;56061;51.748;19.620;2024-02-04T05:07:43;5.05;79.00
69006;SHT31;56061;51.748;19.620;2024-02-04T05:10:10;5.02;79.01
69006;SHT31;56061;51.748;19.620;2024-02-04T05:12:37;5.01;78.97
69006;SHT31;56061;51.748;19.620;2024-02-04T05:15:04;4.99;78.95
69006;SHT31;56061;51.748;19.620;2024-02-04T05:17:31;4.99;78.82
69006;SHT31;56061;51.748;19.620;2024-02-04T05:20:00;4.99;78.79
69006;SHT31;56061;51.748;19.620;2024-02-04T05:22:28;4.96;78.78
69006;SHT31;56061;51.748;19.620;2024-02-04T05:24:54;4.95;78.80
69006;SHT31;56061;51.748;19.620;2024-02-04T05:27:21;4.94;78.88
69006;SHT31;56061;51.748;19.620;2024-02-04T05:29:47;4.92;78.93
69006;SHT31;56061;51.748;19.620;2024-02-04T05:32:14;4.92;79.01
69006;SHT31;56061;51.748;19.620;2024-02-04T05:34:40;4.90;79.03
69006;SHT31;56061;51.748;19.620;2024-02-04T05:37:07;4.90;79.10
69006;SHT31;56061;51.748;19.620;2024-02-04T05:39:34;4.91;79.16
69006;SHT31;56061;51.748;19.620;2024-02-04T05:42:00;4.92;79.21
69006;SHT31;56061;51.748;19.620;2024-02-04T05:44:27;4.92;79.26
69006;SHT31;56061;51.748;19.620;2024-02-04T05:46:54;4.94;79.32
69006;SHT31;56061;51.748;19.620;2024-02-04T05:49:20;4.97;79.35
69006;SHT31;56061;51.748;19.620;2024-02-04T05:51:47;4.99;79.39
69006;SHT31;56061;51.748;19.620;2024-02-04T05:54:14;5.00;79.38
69006;SHT31;56061;51.748;19.620;2024-02-04T05:56:40;5.01;79.40
69006;SHT31;56061;51.748;19.620;2024-02-04T05:59:07;5.01;79.47
69006;SHT31;56061;51.748;19.620;2024-02-04T06:01:33;5.01;79.45
69006;SHT31;56061;51.748;19.620;2024-02-04T06:04:00;5.02;79.50
69006;SHT31;56061;51.748;19.620;2024-02-04T06:06:27;5.06;79.50
69006;SHT31;56061;51.748;19.620;2024-02-04T06:08:53;5.08;79.50
69006;SHT31;56061;51.748;19.620;2024-02-04T06:11:20;5.12;79.50
69006;SHT31;56061;51.748;19.620;2024-02-04T06:13:47;5.14;79.46
69006;SHT31;56061;51.748;19.620;2024-02-04T06:16:13;5.15;79.31
69006;SHT31;56061;51.748;19.620;2024-02-04T06:18:40;5.16;79.13
69006;SHT31;56061;51.748;19.620;2024-02-04T06:21:07;5.18;78.81
69006;SHT31;56061;51.748;19.620;2024-02-04T06:23:34;5.18;78.65
69006;SHT31;56061;51.748;19.620;2024-02-04T06:26:01;5.18;78.59
69006;SHT31;56061;51.748;19.620;2024-02-04T06:28:28;5.17;78.50
69006;SHT31;56061;51.748;19.620;2024-02-04T06:30:55;5.17;78.43
69006;SHT31;56061;51.748;19.620;2024-02-04T06:33:22;5.17;78.41
69006;SHT31;56061;51.748;19.620;2024-02-04T06:35:50;5.15;78.36
69006;SHT31;56061;51.748;19.620;2024-02-04T06:38:17;5.12;78.34
69006;SHT31;56061;51.748;19.620;2024-02-04T06:40:44;5.09;78.50
69006;SHT31;56061;51.748;19.620;2024-02-04T06:43:10;5.07;78.67
69006;SHT31;56061;51.748;19.620;2024-02-04T06:45:37;5.05;78.89
69006;SHT31;56061;51.748;19.620;2024-02-04T06:48:04;5.05;79.06
69006;SHT31;56061;51.748;19.620;2024-02-04T06:50:31;5.05;79.22
69006;SHT31;56061;51.748;19.620;2024-02-04T06:52:58;5.08;79.32
69006;SHT31;56061;51.748;19.620;2024-02-04T06:55:24;5.09;79.38
69006;SHT31;56061;51.748;19.620;2024-02-04T07:00:43;5.14;79.40
69006;SHT31;56061;51.748;19.620;2024-02-04T07:03:09;5.16;79.40
69006;SHT31;56061;51.748;19.620;2024-02-04T07:05:36;5.18;79.42
69006;SHT31;56061;51.748;19.620;2024-02-04T07:08:17;5.20;79.40
69006;SHT31;56061;51.748;19.620;2024-02-04T07:10:44;5.24;79.39
69006;SHT31;56061;51.748;19.620;2024-02-04T07:13:10;5.28;79.32
69006;SHT31;56061;51.748;19.620;2024-02-04T07:15:38;5.30;79.25
69006;SHT31;56061;51.748;19.620;2024-02-04T07:18:17;5.31;79.19
69006;SHT31;56061;51.748;19.620;2024-02-04T07:20:48;5.31;79.13
69006;SHT31;56061;51.748;19.620;2024-02-04T07:23:15;5.32;79.11
69006;SHT31;56061;51.748;19.620;2024-02-04T07:25:41;5.35;79.18
69006;SHT31;56061;51.748;19.620;2024-02-04T07:28:08;5.39;79.12
69006;SHT31;56061;51.748;19.620;2024-02-04T07:30:49;5.43;78.83
69006;SHT31;56061;51.748;19.620;2024-02-04T07:33:16;5.46;78.19
69006;SHT31;56061;51.748;19.620;2024-02-04T07:35:42;5.50;77.62
69006;SHT31;56061;51.748;19.620;2024-02-04T07:38:09;5.53;77.24
69006;SHT31;56061;51.748;19.620;2024-02-04T07:40:47;5.54;76.57
69006;SHT31;56061;51.748;19.620;2024-02-04T07:43:14;5.56;76.09
69006;SHT31;56061;51.748;19.620;2024-02-04T07:45:40;5.61;76.05
69006;SHT31;56061;51.748;19.620;2024-02-04T07:48:08;5.65;75.86
69006;SHT31;56061;51.748;19.620;2024-02-04T07:50:35;5.70;75.69
69006;SHT31;56061;51.748;19.620;2024-02-04T07:53:11;5.73;75.47
69006;SHT31;56061;51.748;19.620;2024-02-04T07:55:37;5.76;75.32
69006;SHT31;56061;51.748;19.620;2024-02-04T07:58:04;5.78;75.29
69006;SHT31;56061;51.748;19.620;2024-02-04T08:00:31;5.78;75.21
69006;SHT31;56061;51.748;19.620;2024-02-04T08:02:57;5.79;75.18
69006;SHT31;56061;51.748;19.620;2024-02-04T08:07:57;5.84;75.07
69006;SHT31;56061;51.748;19.620;2024-02-04T08:10:25;5.88;75.24
69006;SHT31;56061;51.748;19.620;2024-02-04T08:12:51;5.92;75.09
69006;SHT31;56061;51.748;19.620;2024-02-04T08:15:19;5.93;74.86
69006;SHT31;56061;51.748;19.620;2024-02-04T08:17:59;5.94;75.10
69006;SHT31;56061;51.748;19.620;2024-02-04T08:20:25;5.93;75.03
69006;SHT31;56061;51.748;19.620;2024-02-04T08:22:53;5.94;75.18
69006;SHT31;56061;51.748;19.620;2024-02-04T08:25:20;5.95;75.20
69006;SHT31;56061;51.748;19.620;2024-02-04T08:27:47;5.97;75.33
69006;SHT31;56061;51.748;19.620;2024-02-04T08:32:53;6.06;75.29
69006;SHT31;56061;51.748;19.620;2024-02-04T08:35:20;6.09;75.01
69006;SHT31;56061;51.748;19.620;2024-02-04T08:37:46;6.11;75.25
69006;SHT31;56061;51.748;19.620;2024-02-04T08:40:13;6.15;75.08
69006;SHT31;56061;51.748;19.620;2024-02-04T08:42:45;6.17;74.81
69006;SHT31;56061;51.748;19.620;2024-02-04T08:45:12;6.20;74.92
69006;SHT31;56061;51.748;19.620;2024-02-04T08:47:38;6.21;74.89
69006;SHT31;56061;51.748;19.620;2024-02-04T08:50:05;6.26;74.97
69006;SHT31;56061;51.748;19.620;2024-02-04T08:52:33;6.30;74.94
69006;SHT31;56061;51.748;19.620;2024-02-04T08:55:09;6.32;74.72
69006;SHT31;56061;51.748;19.620;2024-02-04T08:57:36;6.33;74.67
69006;SHT31;56061;51.748;19.620;2024-02-04T09:00:02;6.34;74.90
69006;SHT31;56061;51.748;19.620;2024-02-04T09:02:29;6.36;74.70
69006;SHT31;56061;51.748;19.620;2024-02-04T09:04:56;6.36;74.64
69006;SHT31;56061;51.748;19.620;2024-02-04T09:10:00;6.42;74.67
69006;SHT31;56061;51.748;19.620;2024-02-04T09:12:27;6.46;74.70
69006;SHT31;56061;51.748;19.620;2024-02-04T09:14:53;6.49;74.66
69006;SHT31;56061;51.748;19.620;2024-02-04T09:17:20;6.50;74.59
69006;SHT31;56061;51.748;19.620;2024-02-04T09:22:39;6.52;74.67
69006;SHT31;56061;51.748;19.620;2024-02-04T09:25:06;6.53;74.72
69006;SHT31;56061;51.748;19.620;2024-02-04T09:27:33;6.54;74.72
69006;SHT31;56061;51.748;19.620;2024-02-04T09:30:13;6.58;74.85
69006;SHT31;56061;51.748;19.620;2024-02-04T09:32:40;6.65;74.80
69006;SHT31;56061;51.748;19.620;2024-02-04T09:35:07;6.67;74.59
69006;SHT31;56061;51.748;19.620;2024-02-04T09:37:35;6.68;74.57
69006;SHT31;56061;51.748;19.620;2024-02-04T09:42:53;6.68;74.38
69006;SHT31;56061;51.748;19.620;2024-02-04T09:45:20;6.68;74.31
69006;SHT31;56061;51.748;19.620;2024-02-04T09:47:47;6.72;74.56
69006;SHT31;56061;51.748;19.620;2024-02-04T09:50:43;6.76;74.51
69006;SHT31;56061;51.748;19.620;2024-02-04T09:53:10;6.77;74.43
69006;SHT31;56061;51.748;19.620;2024-02-04T09:55:43;6.78;74.42
69006;SHT31;56061;51.748;19.620;2024-02-04T09:58:25;6.75;74.75
69006;SHT31;56061;51.748;19.620;2024-02-04T10:00:51;6.70;74.95
69006;SHT31;56061;51.748;19.620;2024-02-04T10:03:19;6.67;75.09
69006;SHT31;56061;51.748;19.620;2024-02-04T10:05:47;6.63;75.14
69006;SHT31;56061;51.748;19.620;2024-02-04T10:10:54;6.56;75.57
69006;SHT31;56061;51.748;19.620;2024-02-04T10:13:21;6.53;76.34
69006;SHT31;56061;51.748;19.620;2024-02-04T10:15:48;6.48;76.83
69006;SHT31;56061;51.748;19.620;2024-02-04T10:21:21;6.32;77.51
69006;SHT31;56061;51.748;19.620;2024-02-04T10:23:50;6.26;77.89
69006;SHT31;56061;51.748;19.620;2024-02-04T10:26:23;6.22;78.15
69006;SHT31;56061;51.748;19.620;2024-02-04T10:28:53;6.26;78.24
69006;SHT31;56061;51.748;19.620;2024-02-04T10:31:20;6.34;78.15
69006;SHT31;56061;51.748;19.620;2024-02-04T10:33:46;6.41;78.18
69006;SHT31;56061;51.748;19.620;2024-02-04T10:36:13;6.45;78.11
69006;SHT31;56061;51.748;19.620;2024-02-04T10:38:46;6.47;77.92
69006;SHT31;56061;51.748;19.620;2024-02-04T10:41:14;6.49;78.02
69006;SHT31;56061;51.748;19.620;2024-02-04T10:45:52;6.52;78.00
69006;SHT31;56061;51.748;19.620;2024-02-04T10:48:24;6.54;77.91
69006;SHT31;56061;51.748;19.620;2024-02-04T10:53:55;6.55;77.75
69006;SHT31;56061;51.748;19.620;2024-02-04T10:59:28;6.52;77.21
69006;SHT31;56061;51.748;19.620;2024-02-04T11:01:57;6.51;77.04
69006;SHT31;56061;51.748;19.620;2024-02-04T11:04:23;6.52;76.88
69006;SHT31;56061;51.748;19.620;2024-02-04T11:06:57;6.55;76.82
69006;SHT31;56061;51.748;19.620;2024-02-04T11:09:25;6.58;76.90
69006;SHT31;56061;51.748;19.620;2024-02-04T11:11:53;6.63;76.66
69006;SHT31;56061;51.748;19.620;2024-02-04T11:14:25;6.70;76.32
69006;SHT31;56061;51.748;19.620;2024-02-04T11:25:45;6.86;75.11
69006;SHT31;56061;51.748;19.620;2024-02-04T11:28:32;6.86;74.78
69006;SHT31;56061;51.748;19.620;2024-02-04T11:31:00;6.86;74.75
69006;SHT31;56061;51.748;19.620;2024-02-04T11:33:26;6.88;74.70
69006;SHT31;56061;51.748;19.620;2024-02-04T11:38:37;6.94;74.52
69006;SHT31;56061;51.748;19.620;2024-02-04T11:41:05;6.97;74.33
69006;SHT31;56061;51.748;19.620;2024-02-04T11:43:32;6.96;73.80
69006;SHT31;56061;51.748;19.620;2024-02-04T11:46:03;6.96;73.89
69006;SHT31;56061;51.748;19.620;2024-02-04T11:48:36;6.96;73.82
69006;SHT31;56061;51.748;19.620;2024-02-04T11:51:05;6.94;73.71
69006;SHT31;56061;51.748;19.620;2024-02-04T11:53:33;6.95;73.88
69006;SHT31;56061;51.748;19.620;2024-02-04T11:56:01;6.93;73.44
69006;SHT31;56061;51.748;19.620;2024-02-04T11:58:29;6.94;73.18
69006;SHT31;56061;51.748;19.620;2024-02-04T12:01:12;6.97;73.13
69006;SHT31;56061;51.748;19.620;2024-02-04T12:03:39;6.99;73.35
69006;SHT31;56061;51.748;19.620;2024-02-04T12:06:06;7.02;73.49
69006;SHT31;56061;51.748;19.620;2024-02-04T12:08:35;7.03;73.39
69006;SHT31;56061;51.748;19.620;2024-02-04T12:13:38;7.03;73.29
69006;SHT31;56061;51.748;19.620;2024-02-04T12:16:08;7.03;73.46
69006;SHT31;56061;51.748;19.620;2024-02-04T12:18:35;7.03;73.36
69006;SHT31;56061;51.748;19.620;2024-02-04T12:21:02;7.03;73.31
69006;SHT31;56061;51.748;19.620;2024-02-04T12:24:03;7.02;73.27
69006;SHT31;56061;51.748;19.620;2024-02-04T12:26:30;7.00;73.32
69006;SHT31;56061;51.748;19.620;2024-02-04T12:31:57;6.97;73.37
69006;SHT31;56061;51.748;19.620;2024-02-04T12:34:30;6.97;73.52
69006;SHT31;56061;51.748;19.620;2024-02-04T12:37:19;7.00;73.52
69006;SHT31;56061;51.748;19.620;2024-02-04T12:39:46;7.01;73.49
69006;SHT31;56061;51.748;19.620;2024-02-04T12:42:16;7.04;73.46
69006;SHT31;56061;51.748;19.620;2024-02-04T12:44:56;7.05;73.36
69006;SHT31;56061;51.748;19.620;2024-02-04T12:47:24;7.06;73.37
69006;SHT31;56061;51.748;19.620;2024-02-04T12:49:57;7.07;73.17
69006;SHT31;56061;51.748;19.620;2024-02-04T12:52:25;7.09;72.99
69006;SHT31;56061;51.748;19.620;2024-02-04T12:57:32;7.16;72.96
69006;SHT31;56061;51.748;19.620;2024-02-04T13:02:33;7.25;71.84
69006;SHT31;56061;51.748;19.620;2024-02-04T13:08:06;7.29;71.08
69006;SHT31;56061;51.748;19.620;2024-02-04T13:10:34;7.30;71.07
69006;SHT31;56061;51.748;19.620;2024-02-04T13:13:17;7.30;71.32
69006;SHT31;56061;51.748;19.620;2024-02-04T13:15:44;7.29;71.35
69006;SHT31;56061;51.748;19.620;2024-02-04T13:18:11;7.29;71.31
69006;SHT31;56061;51.748;19.620;2024-02-04T13:20:41;7.30;71.63
69006;SHT31;56061;51.748;19.620;2024-02-04T13:25:46;7.34;71.64
69006;SHT31;56061;51.748;19.620;2024-02-04T13:28:13;7.33;71.58
69006;SHT31;56061;51.748;19.620;2024-02-04T13:30:40;7.33;71.39
69006;SHT31;56061;51.748;19.620;2024-02-04T13:33:06;7.32;71.43
69006;SHT31;56061;51.748;19.620;2024-02-04T13:35:59;7.33;71.50
69006;SHT31;56061;51.748;19.620;2024-02-04T13:38:26;7.33;71.26
69006;SHT31;56061;51.748;19.620;2024-02-04T13:40:53;7.34;71.12
69006;SHT31;56061;51.748;19.620;2024-02-04T13:46:11;7.35;70.99
69006;SHT31;56061;51.748;19.620;2024-02-04T13:48:38;7.37;71.04
69006;SHT31;56061;51.748;19.620;2024-02-04T13:51:04;7.39;71.13
69006;SHT31;56061;51.748;19.620;2024-02-04T13:56:22;7.41;70.91
69006;SHT31;56061;51.748;19.620;2024-02-04T13:58:49;7.40;70.95
69006;SHT31;56061;51.748;19.620;2024-02-04T14:01:15;7.41;70.70
69006;SHT31;56061;51.748;19.620;2024-02-04T14:03:46;7.39;70.57
69006;SHT31;56061;51.748;19.620;2024-02-04T14:06:13;7.40;70.65
69006;SHT31;56061;51.748;19.620;2024-02-04T14:08:39;7.41;70.73
69006;SHT31;56061;51.748;19.620;2024-02-04T14:11:06;7.41;70.67
69006;SHT31;56061;51.748;19.620;2024-02-04T14:13:33;7.41;70.73
69006;SHT31;56061;51.748;19.620;2024-02-04T14:18:57;7.40;70.20
69006;SHT31;56061;51.748;19.620;2024-02-04T14:21:26;7.38;70.16
69006;SHT31;56061;51.748;19.620;2024-02-04T14:26:32;7.35;70.42
69006;SHT31;56061;51.748;19.620;2024-02-04T14:28:59;7.34;70.52
69006;SHT31;56061;51.748;19.620;2024-02-04T14:31:25;7.34;70.65
69006;SHT31;56061;51.748;19.620;2024-02-04T14:33:52;7.34;70.56
69006;SHT31;56061;51.748;19.620;2024-02-04T14:39:10;7.36;70.54
69006;SHT31;56061;51.748;19.620;2024-02-04T14:41:37;7.36;70.48
69006;SHT31;56061;51.748;19.620;2024-02-04T14:44:04;7.33;70.53
69006;SHT31;56061;51.748;19.620;2024-02-04T14:46:36;7.33;70.56
69006;SHT31;56061;51.748;19.620;2024-02-04T14:49:05;7.31;70.57
69006;SHT31;56061;51.748;19.620;2024-02-04T14:51:30;7.30;70.64
69006;SHT31;56061;51.748;19.620;2024-02-04T14:54:02;7.28;70.64
69006;SHT31;56061;51.748;19.620;2024-02-04T14:56:29;7.28;70.61
69006;SHT31;56061;51.748;19.620;2024-02-04T14:58:55;7.28;70.73
69006;SHT31;56061;51.748;19.620;2024-02-04T15:01:22;7.26;70.84
69006;SHT31;56061;51.748;19.620;2024-02-04T15:03:49;7.25;70.79
69006;SHT31;56061;51.748;19.620;2024-02-04T15:06:15;7.24;70.81
69006;SHT31;56061;51.748;19.620;2024-02-04T15:08:42;7.20;70.98
69006;SHT31;56061;51.748;19.620;2024-02-04T15:11:09;7.19;71.12
69006;SHT31;56061;51.748;19.620;2024-02-04T15:13:37;7.18;71.11
69006;SHT31;56061;51.748;19.620;2024-02-04T15:16:04;7.17;71.20
69006;SHT31;56061;51.748;19.620;2024-02-04T15:18:30;7.15;71.27
69006;SHT31;56061;51.748;19.620;2024-02-04T15:20:58;7.14;71.22
69006;SHT31;56061;51.748;19.620;2024-02-04T15:23:25;7.12;71.41
69006;SHT31;56061;51.748;19.620;2024-02-04T15:25:52;7.11;71.53
69006;SHT31;56061;51.748;19.620;2024-02-04T15:28:19;7.12;71.61
69006;SHT31;56061;51.748;19.620;2024-02-04T15:30:47;7.12;71.71
69006;SHT31;56061;51.748;19.620;2024-02-04T15:33:14;7.10;71.65
69006;SHT31;56061;51.748;19.620;2024-02-04T15:35:41;7.10;71.79
69006;SHT31;56061;51.748;19.620;2024-02-04T15:38:08;7.11;71.92
69006;SHT31;56061;51.748;19.620;2024-02-04T15:40:35;7.11;71.91
69006;SHT31;56061;51.748;19.620;2024-02-04T15:43:02;7.10;72.08
69006;SHT31;56061;51.748;19.620;2024-02-04T15:45:30;7.09;72.15
69006;SHT31;56061;51.748;19.620;2024-02-04T15:47:57;7.09;72.11
69006;SHT31;56061;51.748;19.620;2024-02-04T15:50:31;7.07;72.07
69006;SHT31;56061;51.748;19.620;2024-02-04T15:53:03;7.04;72.05
69006;SHT31;56061;51.748;19.620;2024-02-04T15:55:30;7.03;71.98
69006;SHT31;56061;51.748;19.620;2024-02-04T15:57:58;7.03;72.11
69006;SHT31;56061;51.748;19.620;2024-02-04T16:00:26;7.03;71.98
69006;SHT31;56061;51.748;19.620;2024-02-04T16:02:54;7.05;71.93
69006;SHT31;56061;51.748;19.620;2024-02-04T16:05:22;7.05;71.96
69006;SHT31;56061;51.748;19.620;2024-02-04T16:07:50;7.04;72.06
69006;SHT31;56061;51.748;19.620;2024-02-04T16:10:17;7.03;71.88
69006;SHT31;56061;51.748;19.620;2024-02-04T16:12:56;7.02;71.90
69006;SHT31;56061;51.748;19.620;2024-02-04T16:15:28;7.01;72.00
69006;SHT31;56061;51.748;19.620;2024-02-04T16:17:56;7.01;72.01
69006;SHT31;56061;51.748;19.620;2024-02-04T16:20:26;7.01;71.93
69006;SHT31;56061;51.748;19.620;2024-02-04T16:22:53;7.02;72.13
69006;SHT31;56061;51.748;19.620;2024-02-04T16:25:19;7.01;72.17
69006;SHT31;56061;51.748;19.620;2024-02-04T16:27:46;6.99;72.27
69006;SHT31;56061;51.748;19.620;2024-02-04T16:30:13;6.98;72.09
69006;SHT31;56061;51.748;19.620;2024-02-04T16:32:40;6.97;72.03
69006;SHT31;56061;51.748;19.620;2024-02-04T16:35:07;6.97;72.13
69006;SHT31;56061;51.748;19.620;2024-02-04T16:37:34;6.98;72.19
69006;SHT31;56061;51.748;19.620;2024-02-04T16:40:01;6.99;72.13
69006;SHT31;56061;51.748;19.620;2024-02-04T16:42:27;6.99;72.07
69006;SHT31;56061;51.748;19.620;2024-02-04T16:44:57;7.00;72.13
69006;SHT31;56061;51.748;19.620;2024-02-04T16:47:24;7.00;72.10
69006;SHT31;56061;51.748;19.620;2024-02-04T16:49:50;6.99;72.10